Time;durP1;ratioP1;P1;durP2;ratioP2;P2;SDS_P1;SDS_P2;PMS_P1;PMS_P2;Temp;Humidity;BMP_temperature;BMP_pressure;BME280_temperature;BME280_humidity;BME280_pressure;Samples;Min_cycle;Max_cycle;Signal;HPM_P1;HPM_P2
2023/04/04 00:00:30;;;;;;;;;;;;;;;1.08;88.75;102940.91;10332986;28;19926;-68
2023/04/04 00:05:34;;;;;;;;;;;;;;;0.95;91.29;102932.94;10318849;28;19925;-68
2023/04/04 00:10:37;;;;;;;;;;;;;;;1.41;89.23;102925.94;10308992;28;19926;-68
2023/04/04 00:15:39;;;;;;;;;;;;;;;1.06;87.72;102928.81;10340477;28;19929;-68
2023/04/04 00:20:41;;;;;;;;;;;;;;;1.17;87.90;102932.44;10323162;28;19949;-69
2023/04/04 00:25:48;;;;;;;;;;;;;;;0.99;87.39;102922.69;10323832;28;19930;-68
2023/04/04 00:30:50;;;;;;;;;;;;;;;1.05;87.55;102920.22;10323342;28;20384;-68
2023/04/04 00:35:53;;;;;;;;;;;;;;;0.83;86.81;102911.25;10340356;28;19926;-69
2023/04/04 00:40:56;;;;;;;;;;;;;;;0.52;89.73;102918.47;10316096;28;20389;-68
2023/04/04 00:45:58;;;;;;;;;;;;;;;0.61;89.52;102922.06;10300129;28;19926;-68
2023/04/04 00:51:01;;;;;;;;;;;;;;;0.69;90.29;102913.59;10324885;28;20263;-68
2023/04/04 00:56:03;;;;;;;;;;;;;;;0.75;90.07;102912.84;10339765;28;19932;-69
2023/04/04 01:01:05;;;;;;;;;;;;;;;0.81;89.32;102909.47;10339360;28;19926;-68
2023/04/04 01:06:07;;;;;;;;;;;;;;;0.59;89.85;102909.13;10322780;28;19930;-68
2023/04/04 01:11:10;;;;;;;;;;;;;;;0.80;90.67;102898.31;10311577;28;19937;-68
2023/04/04 01:16:12;;;;;;;;;;;;;;;0.50;91.35;102903.78;10282181;28;19933;-68
2023/04/04 01:21:16;;;;;;;;;;;;;;;0.67;89.33;102897.25;10308374;28;19926;-68
2023/04/04 01:26:20;;;;;;;;;;;;;;;0.47;90.55;102896.91;10322088;28;19926;-69
2023/04/04 01:31:25;;;;;;;;;;;;;;;0.37;90.17;102895.00;10321807;28;19926;-69
2023/04/04 01:36:35;;;;;;;;;;;;;;;0.36;90.61;102891.53;10321010;28;19930;-68
2023/04/04 01:41:37;;;;;;;;;;;;;;;0.48;90.47;102890.00;10320532;28;19925;-68
2023/04/04 01:46:39;;;;;;;;;;;;;;;0.41;90.08;102894.19;10320904;28;19976;-68
2023/04/04 01:51:42;;;;;;;;;;;;;;;0.65;89.37;102896.34;10336995;28;19933;-68
2023/04/04 01:56:45;;;;;;;;;;;;;;;0.38;90.48;102891.56;10336842;28;19930;-69
2023/04/04 02:01:47;;;;;;;;;;;;;;;0.33;91.17;102901.75;10328200;28;19933;-68
2023/04/04 02:06:51;;;;;;;;;;;;;;;0.15;92.35;102896.25;10337686;28;19936;-68
2023/04/04 02:11:53;;;;;;;;;;;;;;;0.03;92.17;102896.88;10336889;28;19926;-68
2023/04/04 02:16:55;;;;;;;;;;;;;;;0.17;92.82;102903.19;10336069;28;20381;-68
2023/04/04 02:21:58;;;;;;;;;;;;;;;0.27;93.56;102908.50;10335066;28;19932;-68
2023/04/04 02:27:00;;;;;;;;;;;;;;;0.06;92.28;102904.69;10337419;28;19933;-68
2023/04/04 02:32:02;;;;;;;;;;;;;;;0.02;92.99;102902.00;10334802;28;19932;-68
2023/04/04 02:37:04;;;;;;;;;;;;;;;0.01;92.04;102900.28;10319134;28;19972;-68
2023/04/04 02:42:06;;;;;;;;;;;;;;;-0.04;94.56;102910.47;10335526;28;19926;-68
2023/04/04 02:47:08;;;;;;;;;;;;;;;-0.03;93.65;102894.22;10334374;28;19926;-68
2023/04/04 02:52:11;;;;;;;;;;;;;;;0.03;92.20;102888.31;10335239;28;19988;-68
2023/04/04 02:57:13;;;;;;;;;;;;;;;0.04;94.23;102896.06;10335235;28;20325;-68
2023/04/04 03:02:15;;;;;;;;;;;;;;;-0.46;94.01;102890.72;10406204;23;19975;-66
2023/04/04 03:07:17;;;;;;;;;;;;;;;0.08;94.12;102889.25;10416238;28;19932;-66
2023/04/04 03:12:20;;;;;;;;;;;;;;;-0.12;90.36;102892.28;10416905;28;19926;-67
2023/04/04 03:17:22;;;;;;;;;;;;;;;-0.07;92.55;102880.41;10414449;28;20507;-66
2023/04/04 03:22:25;;;;;;;;;;;;;;;-0.41;93.53;102878.81;10397695;28;19975;-66
2023/04/04 03:27:27;;;;;;;;;;;;;;;-0.25;95.83;102873.16;10415548;28;20279;-66
2023/04/04 03:32:29;;;;;;;;;;;;;;;-0.15;93.24;102861.34;10414889;28;20280;-66
2023/04/04 03:37:31;;;;;;;;;;;;;;;-0.02;91.79;102876.22;10397881;28;19933;-66
2023/04/04 03:42:34;;;;;;;;;;;;;;;-0.30;93.27;102874.78;10419269;28;19972;-66
2023/04/04 03:47:36;;;;;;;;;;;;;;;-0.46;93.62;102867.56;10424277;28;19932;-67
2023/04/04 03:52:39;;;;;;;;;;;;;;;-0.19;91.80;102862.13;10406147;28;20273;-66
2023/04/04 03:57:41;;;;;;;;;;;;;;;-0.29;92.62;102867.91;10406026;28;19973;-66
2023/04/04 04:02:43;;;;;;;;;;;;;;;-0.44;90.17;102859.03;10405126;28;19975;-66
2023/04/04 04:07:46;;;;;;;;;;;;;;;-0.25;91.26;102857.72;10423524;28;19925;-66
2023/04/04 04:12:48;;;;;;;;;;;;;;;-0.18;89.18;102858.72;10404468;28;19929;-66
2023/04/04 04:17:50;;;;;;;;;;;;;;;-0.29;90.97;102860.19;10422012;28;19933;-66
2023/04/04 04:22:53;;;;;;;;;;;;;;;-0.55;90.87;102873.38;10404826;28;20005;-66
2023/04/04 04:27:58;;;;;;;;;;;;;;;-0.30;91.19;102864.47;10404805;28;19971;-66
2023/04/04 04:33:00;;;;;;;;;;;;;;;-0.58;91.38;102873.31;10421895;28;19925;-66
2023/04/04 04:38:03;;;;;;;;;;;;;;;-0.31;90.80;102867.03;10421042;28;19925;-66
2023/04/04 04:43:05;;;;;;;;;;;;;;;-0.56;93.45;102869.91;10421549;28;19971;-66
2023/04/04 04:48:07;;;;;;;;;;;;;;;-0.78;94.79;102873.72;10421551;28;20434;-66
2023/04/04 04:53:10;;;;;;;;;;;;;;;-0.83;95.81;102877.88;10419755;28;19948;-66
2023/04/04 04:58:12;;;;;;;;;;;;;;;-0.92;97.03;102882.81;10418598;28;19975;-66
2023/04/04 05:03:16;;;;;;;;;;;;;;;-0.69;96.50;102877.31;10380176;28;19926;-66
2023/04/04 05:08:18;;;;;;;;;;;;;;;-0.89;95.87;102872.63;10380641;28;19926;-66
2023/04/04 05:13:20;;;;;;;;;;;;;;;-0.75;95.26;102867.78;10376093;28;19925;-66
2023/04/04 05:18:22;;;;;;;;;;;;;;;-0.85;96.99;102874.41;10402142;28;19929;-66
2023/04/04 05:23:25;;;;;;;;;;;;;;;-0.73;95.05;102878.97;10420466;28;19932;-66
2023/04/04 05:28:27;;;;;;;;;;;;;;;-0.67;94.21;102886.84;10419945;28;19928;-66
2023/04/04 05:33:30;;;;;;;;;;;;;;;-0.68;94.61;102890.22;10419590;28;19971;-66
2023/04/04 05:38:32;;;;;;;;;;;;;;;-0.56;95.51;102895.63;10418995;28;19925;-66
2023/04/04 05:43:34;;;;;;;;;;;;;;;-0.29;95.72;102901.38;10402918;28;19925;-66
2023/04/04 05:48:36;;;;;;;;;;;;;;;-0.55;95.76;102901.69;10418929;28;19925;-66
2023/04/04 05:53:39;;;;;;;;;;;;;;;-0.60;96.68;102895.56;10401814;28;19929;-66
2023/04/04 05:58:41;;;;;;;;;;;;;;;-0.44;99.19;102901.91;10417713;28;19987;-66
2023/04/04 06:03:44;;;;;;;;;;;;;;;-0.32;98.83;102906.44;10418397;28;19925;-67
2023/04/04 06:08:46;;;;;;;;;;;;;;;0.09;97.92;102907.31;10419033;28;19931;-67
2023/04/04 06:13:54;;;;;;;;;;;;;;;0.01;96.73;102913.16;10401585;28;20503;-66
2023/04/04 06:18:57;;;;;;;;;;;;;;;0.02;96.60;102908.03;10417052;28;19925;-66
2023/04/04 06:23:59;;;;;;;;;;;;;;;0.50;94.98;102908.94;10418471;28;19925;-67
2023/04/04 06:29:01;;;;;;;;;;;;;;;0.52;91.34;102920.16;10418299;28;19925;-66
2023/04/04 06:34:04;;;;;;;;;;;;;;;0.62;90.67;102916.91;10417125;28;19925;-67
2023/04/04 06:39:06;;;;;;;;;;;;;;;0.99;88.66;102909.78;10415960;28;19925;-66
2023/04/04 06:44:09;;;;;;;;;;;;;;;1.29;88.76;102914.59;10416894;28;20276;-67
2023/04/04 06:49:11;;;;;;;;;;;;;;;1.52;87.47;102908.88;10417610;28;19929;-67
2023/04/04 06:54:13;;;;;;;;;;;;;;;1.73;86.37;102918.66;10400605;28;19926;-67
2023/04/04 06:59:16;;;;;;;;;;;;;;;1.75;82.26;102918.66;10377823;28;19925;-66
2023/04/04 07:04:19;;;;;;;;;;;;;;;2.20;82.34;102917.50;10412969;28;19925;-66
2023/04/04 07:09:21;;;;;;;;;;;;;;;2.52;79.94;102922.16;10366743;28;19925;-66
2023/04/04 07:14:30;;;;;;;;;;;;;;;2.95;78.28;102917.38;10375632;28;19990;-67
2023/04/04 07:19:32;;;;;;;;;;;;;;;3.44;76.21;102915.16;10410863;28;20013;-67
2023/04/04 07:24:35;;;;;;;;;;;;;;;3.76;75.25;102923.97;10394595;28;19925;-67
2023/04/04 07:29:37;;;;;;;;;;;;;;;3.83;73.25;102926.63;10403706;28;19925;-67
2023/04/04 07:34:39;;;;;;;;;;;;;;;4.31;74.20;102916.41;10381434;28;20024;-68
2023/04/04 07:39:41;;;;;;;;;;;;;;;4.59;72.39;102913.84;10415316;28;19925;-68
2023/04/04 07:44:43;;;;;;;;;;;;;;;4.86;69.89;102918.25;10413126;28;19932;-68
2023/04/04 07:49:46;;;;;;;;;;;;;;;5.37;69.64;102919.06;10415993;28;19925;-67
2023/04/04 07:54:49;;;;;;;;;;;;;;;5.68;67.25;102911.22;10415571;28;20439;-65
2023/04/04 07:59:51;;;;;;;;;;;;;;;5.65;66.67;102915.53;10415112;28;19929;-66
2023/04/04 08:04:53;;;;;;;;;;;;;;;6.15;65.68;102909.28;10415031;28;19948;-65
2023/04/04 08:09:55;;;;;;;;;;;;;;;6.54;66.80;102914.28;10415103;28;19925;-65
2023/04/04 08:14:58;;;;;;;;;;;;;;;6.74;65.20;102912.44;10415628;28;19940;-64
2023/04/04 08:20:00;;;;;;;;;;;;;;;7.25;64.30;102907.63;10415792;28;19932;-65
2023/04/04 08:25:03;;;;;;;;;;;;;;;7.36;62.15;102897.13;10415704;28;19925;-64
2023/04/04 08:30:06;;;;;;;;;;;;;;;8.12;61.33;102901.41;10421172;28;20361;-65
2023/04/04 08:35:08;;;;;;;;;;;;;;;8.45;60.65;102904.47;10422486;28;20261;-65
2023/04/04 08:40:10;;;;;;;;;;;;;;;9.24;59.80;102896.22;10422043;28;19932;-65
2023/04/04 08:45:13;;;;;;;;;;;;;;;8.77;57.12;102893.53;10422443;28;19933;-65
2023/04/04 08:50:16;;;;;;;;;;;;;;;8.05;55.68;102894.56;10422102;28;19925;-65
2023/04/04 08:55:19;;;;;;;;;;;;;;;10.41;55.47;102893.84;10421243;28;19977;-65
2023/04/04 09:00:22;;;;;;;;;;;;;;;10.26;55.60;102888.91;10419824;28;19925;-68
2023/04/04 09:05:25;;;;;;;;;;;;;;;9.02;54.74;102887.91;10420803;28;19925;-68
2023/04/04 09:10:28;;;;;;;;;;;;;;;10.97;53.48;102890.72;10421883;28;19965;-68
2023/04/04 09:15:30;;;;;;;;;;;;;;;10.16;50.00;102885.66;10422126;28;19925;-68
2023/04/04 09:20:36;;;;;;;;;;;;;;;11.29;47.94;102881.16;10420893;28;19925;-68
2023/04/04 09:25:54;;;;;;;;;;;;;;;10.74;44.37;102880.81;10420852;28;20106;-68
2023/04/04 09:31:01;;;;;;;;;;;;;;;11.49;45.95;102883.22;10420014;28;20347;-67
2023/04/04 09:36:09;;;;;;;;;;;;;;;12.57;46.23;102872.97;10420065;28;19932;-67
2023/04/04 09:41:14;;;;;;;;;;;;;;;13.90;46.48;102865.69;10420544;28;20308;-67
2023/04/04 09:46:20;;;;;;;;;;;;;;;13.15;45.27;102864.03;10420107;28;19931;-68
2023/04/04 09:51:22;;;;;;;;;;;;;;;14.50;44.35;102868.56;10419725;28;19940;-68
2023/04/04 09:56:26;;;;;;;;;;;;;;;12.73;43.99;102872.47;10419500;28;19925;-70
2023/04/04 10:01:28;;;;;;;;;;;;;;;14.32;42.06;102872.81;10376634;23;19926;-63
2023/04/04 10:06:31;;;;;;;;;;;;;;;15.24;41.89;102861.03;10318590;28;19930;-63
2023/04/04 10:11:34;;;;;;;;;;;;;;;14.61;42.54;102863.75;10334389;28;19926;-63
2023/04/04 10:16:37;;;;;;;;;;;;;;;14.75;41.04;102862.31;10335702;28;20329;-63
2023/04/04 10:21:39;;;;;;;;;;;;;;;12.43;39.87;102856.81;10337324;28;19925;-63
2023/04/04 10:26:41;;;;;;;;;;;;;;;15.22;41.47;102851.50;10336310;28;20381;-63
2023/04/04 10:31:44;;;;;;;;;;;;;;;14.12;41.17;102858.66;10335047;28;19957;-63
2023/04/04 10:37:05;;;;;;;;;;;;;;;16.58;39.55;102843.34;10319489;28;19926;-64
2023/04/04 10:42:07;;;;;;;;;;;;;;;16.76;39.24;102846.84;10332767;28;19926;-64
2023/04/04 10:47:13;;;;;;;;;;;;;;;14.01;37.66;102847.69;10286418;28;19930;-64
2023/04/04 10:52:16;;;;;;;;;;;;;;;16.11;40.50;102833.34;10333502;28;19933;-64
2023/04/04 10:57:18;;;;;;;;;;;;;;;17.32;35.26;102821.00;10318109;28;19930;-64
2023/04/04 11:02:39;;;;;;;;;;;;;;;19.55;37.92;102825.75;10347121;28;19933;-64
2023/04/04 11:07:43;;;;;;;;;;;;;;;17.36;36.77;102819.03;10375008;28;20008;-64
2023/04/04 11:12:53;;;;;;;;;;;;;;;19.12;35.91;102815.13;10376102;28;19932;-65
2023/04/04 11:18:06;;;;;;;;;;;;;;;19.11;32.90;102797.50;10375856;28;19929;-65
2023/04/04 11:23:23;;;;;;;;;;;;;;;19.46;35.13;102787.31;10375760;28;20016;-65
2023/04/04 11:28:25;;;;;;;;;;;;;;;19.79;35.18;102783.47;10357737;28;19933;-65
2023/04/04 11:33:27;;;;;;;;;;;;;;;20.44;34.84;102784.47;10374823;28;20288;-65
2023/04/04 11:38:30;;;;;;;;;;;;;;;18.88;34.46;102780.34;10358623;28;20013;-65
2023/04/04 11:43:32;;;;;;;;;;;;;;;17.83;31.67;102776.66;10375359;28;19925;-65
2023/04/04 11:48:34;;;;;;;;;;;;;;;20.10;32.12;102770.81;10374616;28;20305;-65
2023/04/04 11:53:37;;;;;;;;;;;;;;;20.20;32.72;102779.03;10375150;28;19979;-65
2023/04/04 11:58:39;;;;;;;;;;;;;;;20.69;32.22;102772.19;10357808;28;20291;-65
2023/04/04 12:03:41;;;;;;;;;;;;;;;22.22;32.14;102762.84;10379547;28;19925;-66
2023/04/04 12:08:44;;;;;;;;;;;;;;;21.86;32.51;102758.50;10383045;28;20020;-66
2023/04/04 12:13:47;;;;;;;;;;;;;;;20.77;32.18;102749.41;10382177;28;19933;-66
2023/04/04 12:18:49;;;;;;;;;;;;;;;20.37;33.13;102743.28;10365446;28;19925;-65
2023/04/04 12:23:52;;;;;;;;;;;;;;;22.03;31.26;102733.25;10382432;28;19930;-66
2023/04/04 12:28:56;;;;;;;;;;;;;;;18.17;31.76;102734.16;10364478;28;20278;-66
2023/04/04 12:33:59;;;;;;;;;;;;;;;20.12;33.09;102723.69;10381539;28;19926;-65
2023/04/04 12:39:03;;;;;;;;;;;;;;;19.75;32.68;102715.50;10364374;28;20369;-66
2023/04/04 12:44:09;;;;;;;;;;;;;;;20.81;32.74;102706.59;10364727;28;19933;-66
2023/04/04 12:49:12;;;;;;;;;;;;;;;19.54;34.11;102695.66;10380830;28;19930;-66
2023/04/04 12:54:25;;;;;;;;;;;;;;;20.11;30.41;102694.56;10363314;28;20377;-66
2023/04/04 12:59:28;;;;;;;;;;;;;;;22.40;28.82;102688.59;10380738;28;19929;-66
2023/04/04 13:04:30;;;;;;;;;;;;;;;17.70;32.22;102690.91;10346760;28;20021;-65
2023/04/04 13:09:33;;;;;;;;;;;;;;;21.97;30.04;102683.91;10363236;28;19926;-66
2023/04/04 13:14:55;;;;;;;;;;;;;;;23.39;29.23;102662.03;10379602;28;19984;-66
2023/04/04 13:19:57;;;;;;;;;;;;;;;20.33;32.33;102665.53;10379627;28;20293;-66
2023/04/04 13:24:59;;;;;;;;;;;;;;;20.37;32.40;102658.19;10379421;28;20003;-65
2023/04/04 13:30:02;;;;;;;;;;;;;;;21.08;32.24;102647.84;10362560;28;19929;-66
2023/04/04 13:35:05;;;;;;;;;;;;;;;21.30;32.57;102631.13;10379544;28;19925;-66
2023/04/04 13:40:07;;;;;;;;;;;;;;;21.45;31.50;102627.34;10378801;28;19949;-66
2023/04/04 13:45:10;;;;;;;;;;;;;;;23.35;30.14;102616.00;10379081;28;20395;-66
2023/04/04 13:50:12;;;;;;;;;;;;;;;22.93;29.12;102607.88;10361129;28;19930;-66
2023/04/04 13:55:14;;;;;;;;;;;;;;;22.62;28.74;102617.50;10377655;28;19925;-66
2023/04/04 14:00:17;;;;;;;;;;;;;;;22.41;30.00;102609.41;10378017;28;20408;-66
2023/04/04 14:05:19;;;;;;;;;;;;;;;23.50;29.15;102608.53;10378527;28;19925;-66
2023/04/04 14:10:21;;;;;;;;;;;;;;;21.84;30.30;102598.66;10377695;28;20388;-66
2023/04/04 14:15:24;;;;;;;;;;;;;;;19.95;28.77;102588.41;10377480;28;19925;-66
2023/04/04 14:20:26;;;;;;;;;;;;;;;22.94;30.31;102580.16;10376761;28;19925;-66
2023/04/04 14:25:28;;;;;;;;;;;;;;;21.91;30.85;102580.34;10377051;28;19960;-66
2023/04/04 14:30:30;;;;;;;;;;;;;;;23.04;30.01;102576.75;10376876;28;19980;-66
2023/04/04 14:35:32;;;;;;;;;;;;;;;20.02;28.70;102555.09;10377348;28;19930;-66
2023/04/04 14:40:35;;;;;;;;;;;;;;;21.73;29.12;102561.31;10377104;28;19932;-66
2023/04/04 14:45:37;;;;;;;;;;;;;;;23.63;29.96;102544.16;10359018;28;20373;-66
2023/04/04 14:50:41;;;;;;;;;;;;;;;22.80;29.81;102546.59;10375697;28;20012;-66
2023/04/04 14:55:44;;;;;;;;;;;;;;;23.35;30.41;102543.84;10377065;28;19925;-66
2023/04/04 15:00:47;;;;;;;;;;;;;;;22.45;28.64;102542.31;10375600;28;20377;-66
2023/04/04 15:05:49;;;;;;;;;;;;;;;22.84;27.93;102533.84;10376364;28;19933;-66
2023/04/04 15:10:51;;;;;;;;;;;;;;;24.04;28.02;102526.41;10376081;28;19933;-66
2023/04/04 15:15:53;;;;;;;;;;;;;;;22.14;29.59;102535.03;10357917;28;19991;-66
2023/04/04 15:20:56;;;;;;;;;;;;;;;20.93;29.38;102525.53;10375258;28;19972;-66
2023/04/04 15:25:58;;;;;;;;;;;;;;;22.50;28.74;102517.06;10358018;28;19926;-66
2023/04/04 15:31:01;;;;;;;;;;;;;;;20.30;28.81;102514.13;10358333;28;19926;-66
2023/04/04 15:36:04;;;;;;;;;;;;;;;22.07;28.74;102506.19;10304401;28;19930;-66
2023/04/04 15:41:07;;;;;;;;;;;;;;;21.22;29.85;102519.00;10293561;28;19981;-66
2023/04/04 15:46:09;;;;;;;;;;;;;;;20.74;28.95;102510.06;10282935;28;19956;-66
2023/04/04 15:51:12;;;;;;;;;;;;;;;19.03;31.43;102503.34;10334306;28;20040;-66
2023/04/04 15:56:14;;;;;;;;;;;;;;;20.26;29.29;102499.34;10333891;28;19929;-66
2023/04/04 16:01:16;;;;;;;;;;;;;;;19.01;30.77;102493.75;10341441;23;19977;-67
2023/04/04 16:06:19;;;;;;;;;;;;;;;18.40;32.82;102485.31;10333613;28;20372;-67
2023/04/04 16:11:21;;;;;;;;;;;;;;;17.91;32.73;102483.97;10334176;28;19981;-65
2023/04/04 16:16:23;;;;;;;;;;;;;;;16.63;34.32;102488.75;10316268;28;19925;-65
2023/04/04 16:21:26;;;;;;;;;;;;;;;16.83;32.33;102483.19;10334176;28;19933;-68
2023/04/04 16:26:28;;;;;;;;;;;;;;;16.11;35.59;102480.13;10333995;28;19933;-65
2023/04/04 16:31:31;;;;;;;;;;;;;;;15.58;35.84;102466.16;10333678;28;19930;-65
2023/04/04 16:36:33;;;;;;;;;;;;;;;15.28;37.26;102462.44;10315852;28;20300;-68
2023/04/04 16:41:39;;;;;;;;;;;;;;;14.86;37.58;102473.28;10333562;28;19980;-66
2023/04/04 16:46:41;;;;;;;;;;;;;;;15.08;36.18;102461.69;10333679;28;19926;-68
2023/04/04 16:51:45;;;;;;;;;;;;;;;15.05;37.22;102461.84;10337890;28;19926;-67
2023/04/04 16:56:47;;;;;;;;;;;;;;;14.47;38.79;102465.47;10340585;28;19925;-65
2023/04/04 17:01:49;;;;;;;;;;;;;;;13.86;40.34;102462.09;10339776;28;19933;-65
2023/04/04 17:06:51;;;;;;;;;;;;;;;13.44;41.12;102470.97;10339433;28;19980;-67
2023/04/04 17:11:56;;;;;;;;;;;;;;;13.11;41.93;102471.44;10325018;28;19930;-67
2023/04/04 17:17:01;;;;;;;;;;;;;;;12.45;39.95;102466.19;10297486;28;19934;-67
2023/04/04 17:22:03;;;;;;;;;;;;;;;12.30;41.55;102467.63;10282705;28;19981;-67
2023/04/04 17:27:07;;;;;;;;;;;;;;;11.79;42.61;102458.97;10297910;28;21392;-67
2023/04/04 17:32:10;;;;;;;;;;;;;;;11.53;46.31;102450.28;10299279;28;19930;-67
2023/04/04 17:37:13;;;;;;;;;;;;;;;11.69;43.83;102449.72;10298240;28;20040;-67
2023/04/04 17:42:15;;;;;;;;;;;;;;;11.43;45.57;102443.63;10298168;28;19926;-67
2023/04/04 17:47:18;;;;;;;;;;;;;;;11.29;46.34;102444.09;10298599;28;19926;-68
2023/04/04 17:52:20;;;;;;;;;;;;;;;10.97;47.00;102443.41;10297768;28;19997;-67
2023/04/04 17:57:22;;;;;;;;;;;;;;;10.77;47.54;102438.81;10298166;28;19981;-68
2023/04/04 18:02:25;;;;;;;;;;;;;;;10.55;48.13;102449.09;10297274;28;19973;-68
2023/04/04 18:07:27;;;;;;;;;;;;;;;10.17;49.17;102458.06;10297168;28;20024;-68
2023/04/04 18:12:29;;;;;;;;;;;;;;;10.32;49.07;102452.44;10297572;28;19926;-68
2023/04/04 18:17:32;;;;;;;;;;;;;;;10.05;50.85;102448.81;10280225;28;19929;-68
2023/04/04 18:22:34;;;;;;;;;;;;;;;9.83;51.92;102452.06;10296587;28;20382;-68
2023/04/04 18:27:37;;;;;;;;;;;;;;;9.62;53.83;102458.72;10279884;28;19926;-68
2023/04/04 18:32:39;;;;;;;;;;;;;;;9.49;54.47;102449.50;10296152;28;20270;-68
2023/04/04 18:37:41;;;;;;;;;;;;;;;9.04;56.31;102455.84;10296568;28;19965;-68
2023/04/04 18:42:44;;;;;;;;;;;;;;;9.06;55.57;102464.53;10279277;28;19926;-67
2023/04/04 18:47:46;;;;;;;;;;;;;;;8.65;57.55;102466.34;10279157;28;19930;-67
2023/04/04 18:52:48;;;;;;;;;;;;;;;8.61;55.59;102475.16;10299120;28;20365;-68
2023/04/04 18:57:50;;;;;;;;;;;;;;;8.21;58.13;102475.13;10335869;28;19926;-67
2023/04/04 19:02:53;;;;;;;;;;;;;;;8.07;58.02;102480.59;10334997;28;19985;-67
2023/04/04 19:07:55;;;;;;;;;;;;;;;7.83;57.74;102480.19;10335757;28;19926;-68
2023/04/04 19:12:57;;;;;;;;;;;;;;;7.63;60.82;102477.94;10333050;28;20412;-68
2023/04/04 19:18:00;;;;;;;;;;;;;;;7.31;60.72;102478.50;10334405;28;19925;-68
2023/04/04 19:23:02;;;;;;;;;;;;;;;7.01;59.54;102481.59;10333997;28;19926;-68
2023/04/04 19:28:04;;;;;;;;;;;;;;;7.05;61.25;102485.84;10334560;28;19925;-67
2023/04/04 19:33:08;;;;;;;;;;;;;;;6.91;61.86;102484.34;10316568;28;19926;-67
2023/04/04 19:38:10;;;;;;;;;;;;;;;6.94;63.08;102476.50;10333550;28;20301;-67
2023/04/04 19:43:17;;;;;;;;;;;;;;;7.01;63.17;102479.00;10317443;28;19973;-68
2023/04/04 19:48:39;;;;;;;;;;;;;;;6.77;62.61;102480.19;10333721;28;19925;-67
2023/04/04 19:53:42;;;;;;;;;;;;;;;6.62;64.65;102473.50;10332504;28;19980;-67
2023/04/04 19:58:44;;;;;;;;;;;;;;;6.56;64.97;102476.19;10333654;28;20432;-67
2023/04/04 20:03:47;;;;;;;;;;;;;;;6.76;63.68;102483.72;10332881;28;19926;-68
2023/04/04 20:08:52;;;;;;;;;;;;;;;6.37;65.89;102487.69;10315678;28;20361;-68
2023/04/04 20:13:55;;;;;;;;;;;;;;;6.49;64.86;102484.97;10316834;28;19925;-68
2023/04/04 20:18:58;;;;;;;;;;;;;;;6.21;67.26;102476.63;10334065;28;19942;-68
2023/04/04 20:24:03;;;;;;;;;;;;;;;6.10;68.17;102493.22;10336907;28;19926;-67
2023/04/04 20:29:28;;;;;;;;;;;;;;;6.02;66.96;102487.25;10322566;28;20036;-68
2023/04/04 20:34:32;;;;;;;;;;;;;;;5.71;68.24;102463.28;10290776;28;20296;-67
2023/04/04 20:39:37;;;;;;;;;;;;;;;5.93;66.19;102472.59;10283817;28;19926;-68
2023/04/04 20:44:39;;;;;;;;;;;;;;;5.71;66.93;102464.13;10323144;28;19933;-68
2023/04/04 20:49:42;;;;;;;;;;;;;;;5.85;67.24;102473.53;10338783;28;20439;-68
2023/04/04 20:54:44;;;;;;;;;;;;;;;5.57;67.48;102479.03;10333349;28;19972;-68
2023/04/04 20:59:47;;;;;;;;;;;;;;;5.37;68.67;102481.81;10313391;28;20285;-68
2023/04/04 21:04:50;;;;;;;;;;;;;;;5.25;69.39;102468.94;10340281;28;19925;-68
2023/04/04 21:09:53;;;;;;;;;;;;;;;5.44;68.63;102467.03;10338985;28;20044;-68
2023/04/04 21:14:55;;;;;;;;;;;;;;;5.20;69.61;102472.41;10322105;28;19948;-68
2023/04/04 21:19:57;;;;;;;;;;;;;;;5.00;69.28;102472.56;10339805;28;19926;-68
2023/04/04 21:24:59;;;;;;;;;;;;;;;4.98;69.40;102474.31;10338252;28;20325;-68
2023/04/04 21:30:03;;;;;;;;;;;;;;;4.36;70.97;102467.78;10337352;28;19980;-68
2023/04/04 21:35:05;;;;;;;;;;;;;;;4.60;71.68;102452.06;10321079;28;19930;-68
2023/04/04 21:40:08;;;;;;;;;;;;;;;4.61;70.70;102455.53;10321669;28;19934;-68
2023/04/04 21:45:10;;;;;;;;;;;;;;;4.50;70.80;102455.56;10320547;28;20369;-68
2023/04/04 21:50:12;;;;;;;;;;;;;;;4.54;71.18;102454.72;10338048;28;19930;-68
2023/04/04 21:55:15;;;;;;;;;;;;;;;4.46;71.79;102451.28;10337759;28;19926;-68
2023/04/04 22:00:17;;;;;;;;;;;;;;;4.63;71.25;102459.81;10336786;28;20373;-68
2023/04/04 22:05:20;;;;;;;;;;;;;;;4.68;71.25;102459.81;10336296;28;19926;-68
2023/04/04 22:10:25;;;;;;;;;;;;;;;4.47;70.00;102450.41;10336575;28;19926;-68
2023/04/04 22:15:31;;;;;;;;;;;;;;;4.03;72.40;102454.91;10337756;28;20369;-68
2023/04/04 22:20:33;;;;;;;;;;;;;;;4.04;71.60;102453.22;10336782;28;19933;-68
2023/04/04 22:25:35;;;;;;;;;;;;;;;3.62;71.30;102442.09;10336020;28;19930;-68
2023/04/04 22:30:37;;;;;;;;;;;;;;;3.45;73.31;102442.13;10335187;28;20332;-68
2023/04/04 22:35:40;;;;;;;;;;;;;;;3.45;72.97;102427.44;10336832;28;20021;-68
2023/04/04 22:40:43;;;;;;;;;;;;;;;3.99;68.72;102424.72;10336051;28;20392;-68
2023/04/04 22:45:45;;;;;;;;;;;;;;;3.53;71.08;102430.00;10335810;28;19926;-68
2023/04/04 22:50:54;;;;;;;;;;;;;;;2.93;74.16;102433.50;10335610;28;19926;-68
2023/04/04 22:55:58;;;;;;;;;;;;;;;2.96;72.95;102430.06;10335473;28;19925;-68
2023/04/04 23:01:00;;;;;;;;;;;;;;;2.97;73.84;102421.44;10335400;28;19989;-68
2023/04/04 23:06:03;;;;;;;;;;;;;;;2.70;74.45;102417.94;10335494;28;19929;-68
2023/04/04 23:11:05;;;;;;;;;;;;;;;2.74;75.48;102421.41;10317637;28;19984;-68
2023/04/04 23:16:07;;;;;;;;;;;;;;;2.50;75.39;102419.66;10334788;28;20366;-68
2023/04/04 23:21:10;;;;;;;;;;;;;;;2.49;76.34;102413.63;10334723;28;20484;-68
2023/04/04 23:26:12;;;;;;;;;;;;;;;2.45;74.18;102411.88;10334009;28;19929;-68
2023/04/04 23:31:15;;;;;;;;;;;;;;;2.59;74.72;102404.16;10334315;28;19926;-69
2023/04/04 23:36:19;;;;;;;;;;;;;;;2.33;75.77;102396.34;10334874;28;19925;-68
2023/04/04 23:41:22;;;;;;;;;;;;;;;2.58;75.29;102411.03;10335386;28;19968;-68
2023/04/04 23:46:25;;;;;;;;;;;;;;;2.76;73.75;102404.19;10333951;28;19925;-68
2023/04/04 23:51:36;;;;;;;;;;;;;;;2.59;74.98;102420.53;10333257;28;20266;-68
2023/04/04 23:56:39;;;;;;;;;;;;;;;2.24;76.11;102410.09;10333185;28;20048;-68
